Time;durP1;ratioP1;P1;durP2;ratioP2;P2;SDS_P1;SDS_P2;PMS_P1;PMS_P2;Temp;Humidity;BMP_temperature;BMP_pressure;BME280_temperature;BME280_humidity;BME280_pressure;Samples;Min_cycle;Max_cycle;Signal;HPM_P1;HPM_P2
2023/06/17 00:01:22;;;;;;;7.60;6.90;;;18.40;1.00;;;;;;5097942;28;20184;-54
2023/06/17 00:03:48;;;;;;;7.97;7.17;;;18.40;1.00;;;;;;5097710;28;20220;-53
2023/06/17 00:06:13;;;;;;;8.67;7.87;;;18.40;1.00;;;;;;5099645;28;20203;-54
2023/06/17 00:08:39;;;;;;;7.23;6.63;;;18.40;1.00;;;;;;5099244;28;20641;-54
2023/06/17 00:11:05;;;;;;;8.50;7.70;;;18.30;1.00;;;;;;5099848;28;20180;-53
2023/06/17 00:13:32;;;;;;;9.20;8.30;;;18.30;1.00;;;;;;5099785;28;20266;-54
2023/06/17 00:15:59;;;;;;;8.70;7.73;;;18.20;1.00;;;;;;5099071;28;20176;-57
2023/06/17 00:18:25;;;;;;;8.37;7.53;;;18.10;1.00;;;;;;5099553;28;20414;-55
2023/06/17 00:20:52;;;;;;;7.40;6.70;;;18.10;1.00;;;;;;5099244;28;20862;-54
2023/06/17 00:23:20;;;;;;;7.77;6.97;;;18.00;1.00;;;;;;5098620;28;20472;-55
2023/06/17 00:25:46;;;;;;;7.60;6.90;;;18.10;1.00;;;;;;5099120;28;20441;-55
2023/06/17 00:28:11;;;;;;;7.50;6.90;;;18.10;1.00;;;;;;5099314;28;20430;-56
2023/06/17 00:30:37;;;;;;;8.23;7.50;;;18.10;1.00;;;;;;5097958;28;20445;-57
2023/06/17 00:33:03;;;;;;;7.40;6.80;;;18.10;1.00;;;;;;5098777;28;20625;-53
2023/06/17 00:35:29;;;;;;;8.30;7.60;;;18.10;1.00;;;;;;5099185;28;20200;-53
2023/06/17 00:37:54;;;;;;;9.50;8.37;;;18.10;1.00;;;;;;5099870;28;20384;-54
2023/06/17 00:40:20;;;;;;;8.80;8.10;;;18.10;1.00;;;;;;5099279;28;20173;-55
2023/06/17 00:42:46;;;;;;;9.00;8.17;;;18.10;1.00;;;;;;5099744;28;20172;-55
2023/06/17 00:45:11;;;;;;;9.13;8.33;;;18.00;1.00;;;;;;5096703;28;20172;-52
2023/06/17 00:47:38;;;;;;;8.40;7.60;;;18.00;1.00;;;;;;5096227;28;20431;-56
2023/06/17 00:50:07;;;;;;;8.53;7.70;;;17.90;1.00;;;;;;5096432;28;20199;-54
2023/06/17 00:52:33;;;;;;;8.43;7.63;;;17.90;1.00;;;;;;5096919;28;20426;-54
2023/06/17 00:54:59;;;;;;;8.40;7.70;;;17.90;1.00;;;;;;5097320;28;20501;-56
2023/06/17 00:57:25;;;;;;;8.30;7.60;;;17.90;1.00;;;;;;5097977;28;20238;-57
2023/06/17 00:59:50;;;;;;;8.70;7.90;;;17.90;1.00;;;;;;5098340;28;20177;-56
2023/06/17 01:02:17;;;;;;;8.83;8.07;;;17.90;1.00;;;;;;5099151;28;20203;-57
2023/06/17 01:04:43;;;;;;;9.03;8.23;;;17.90;1.00;;;;;;5098871;28;20647;-54
2023/06/17 01:07:12;;;;;;;8.47;7.80;;;17.80;1.00;;;;;;5080311;28;20437;-55
2023/06/17 01:09:41;;;;;;;9.57;8.73;;;17.90;1.00;;;;;;5097914;28;20540;-58
2023/06/17 01:12:08;;;;;;;9.87;8.97;;;17.80;1.00;;;;;;5098405;28;20811;-54
2023/06/17 01:14:33;;;;;;;9.80;8.80;;;17.70;1.00;;;;;;5078960;28;20464;-53
2023/06/17 01:17:03;;;;;;;9.33;8.50;;;17.70;1.00;;;;;;5077976;28;20422;-55
2023/06/17 01:19:29;;;;;;;9.87;8.90;;;17.70;1.00;;;;;;5078374;28;20624;-54
2023/06/17 01:21:55;;;;;;;8.73;8.03;;;17.70;1.00;;;;;;5077393;28;20434;-54
2023/06/17 01:24:28;;;;;;;10.70;9.80;;;17.70;1.00;;;;;;5075867;28;20418;-52
2023/06/17 01:26:59;;;;;;;9.53;8.63;;;17.70;1.00;;;;;;5093708;28;20164;-56
2023/06/17 01:29:26;;;;;;;9.17;8.37;;;17.70;1.00;;;;;;5093474;28;20809;-53
2023/06/17 01:31:56;;;;;;;9.47;8.50;;;17.60;1.00;;;;;;5094605;28;20434;-54
2023/06/17 01:34:44;;;;;;;9.20;8.40;;;17.60;1.00;;;;;;5094447;28;20498;-55
2023/06/17 01:37:14;;;;;;;9.80;8.80;;;17.60;1.00;;;;;;5076331;28;20430;-54
2023/06/17 01:39:41;;;;;;;9.67;8.90;;;17.50;1.00;;;;;;5076521;28;20533;-54
2023/06/17 01:42:11;;;;;;;10.37;9.50;;;17.50;1.00;;;;;;5098006;28;20477;-54
2023/06/17 01:44:39;;;;;;;9.17;8.30;;;17.50;1.00;;;;;;5097353;28;20410;-53
2023/06/17 01:47:09;;;;;;;9.60;8.70;;;17.40;1.00;;;;;;5096424;28;20455;-56
2023/06/17 01:49:36;;;;;;;9.90;9.03;;;17.40;1.00;;;;;;5097243;28;20914;-54
2023/06/17 01:52:02;;;;;;;10.30;9.30;;;17.40;1.00;;;;;;5097217;28;20568;-54
2023/06/17 01:54:27;;;;;;;9.40;8.60;;;17.40;1.00;;;;;;5097403;28;20564;-54
2023/06/17 01:56:53;;;;;;;10.50;9.50;;;17.40;1.00;;;;;;5097234;28;20762;-55
2023/06/17 01:59:19;;;;;;;9.77;8.97;;;17.40;1.00;;;;;;5095919;28;20233;-56
2023/06/17 02:01:44;;;;;;;10.43;9.53;;;17.40;1.00;;;;;;5097362;28;20566;-55
2023/06/17 02:04:10;;;;;;;10.47;9.43;;;17.40;1.00;;;;;;5095305;28;20187;-55
2023/06/17 02:06:37;;;;;;;9.63;8.83;;;17.40;1.00;;;;;;5095759;28;20428;-54
2023/06/17 02:09:03;;;;;;;10.37;9.00;;;17.40;1.00;;;;;;5093515;28;20192;-57
2023/06/17 02:11:28;;;;;;;9.37;8.57;;;17.30;1.00;;;;;;5094703;28;20453;-57
2023/06/17 02:13:54;;;;;;;9.37;8.57;;;17.30;1.00;;;;;;5094927;28;20895;-55
2023/06/17 02:16:20;;;;;;;10.50;9.47;;;17.20;1.00;;;;;;5095225;28;20192;-54
2023/06/17 02:18:47;;;;;;;8.73;8.07;;;17.20;1.00;;;;;;5095626;28;20464;-53
2023/06/17 02:21:13;;;;;;;10.47;9.53;;;17.20;1.00;;;;;;5096124;28;20165;-55
2023/06/17 02:23:39;;;;;;;9.83;8.97;;;17.20;1.00;;;;;;5095879;28;20410;-54
2023/06/17 02:26:04;;;;;;;8.63;7.90;;;17.20;1.00;;;;;;5095661;28;20562;-56
2023/06/17 02:28:30;;;;;;;10.60;9.17;;;17.10;1.00;;;;;;5095138;28;20168;-56
2023/06/17 02:30:55;;;;;;;10.50;9.20;;;17.20;1.00;;;;;;5097095;28;20211;-54
2023/06/17 02:33:22;;;;;;;9.93;9.03;;;17.10;1.00;;;;;;5097242;28;20199;-55
2023/06/17 02:35:48;;;;;;;9.40;8.60;;;17.20;1.00;;;;;;5097021;28;20234;-55
2023/06/17 02:38:14;;;;;;;9.47;8.67;;;17.20;1.00;;;;;;5097026;28;20419;-57
2023/06/17 02:40:40;;;;;;;9.70;8.80;;;17.10;1.00;;;;;;5096490;28;20267;-57
2023/06/17 02:43:06;;;;;;;10.77;9.87;;;17.10;1.00;;;;;;5096545;28;20812;-43
2023/06/17 02:45:34;;;;;;;10.57;9.73;;;17.10;1.00;;;;;;5097132;28;20184;-42
2023/06/17 02:48:00;;;;;;;10.80;9.90;;;16.90;1.00;;;;;;5096911;28;20417;-45
2023/06/17 02:50:26;;;;;;;10.10;9.20;;;16.70;1.00;;;;;;5097592;28;20689;-43
2023/06/17 02:52:57;;;;;;;10.37;9.47;;;16.40;1.00;;;;;;5096684;28;20184;-45
2023/06/17 02:55:25;;;;;;;11.03;10.03;;;16.10;1.00;;;;;;5095336;28;20303;-41
2023/06/17 02:57:51;;;;;;;10.40;9.47;;;15.90;1.00;;;;;;5094109;28;20430;-43
2023/06/17 03:00:17;;;;;;;10.90;9.90;;;15.70;1.00;;;;;;5093802;28;20414;-45
2023/06/17 03:02:42;;;;;;;10.40;9.50;;;15.60;1.00;;;;;;5096215;28;20176;-46
2023/06/17 03:05:09;;;;;;;11.60;10.53;;;15.50;3.20;;;;;;5095061;28;20430;-44
2023/06/17 03:07:36;;;;;;;11.50;10.40;;;15.30;36.90;;;;;;5096235;28;20248;-41
2023/06/17 03:10:05;;;;;;;11.17;10.20;;;15.20;76.90;;;;;;5077807;28;20540;-44
2023/06/17 03:12:31;;;;;;;10.93;9.90;;;15.10;99.90;;;;;;5096650;28;20440;-43
2023/06/17 03:14:57;;;;;;;11.17;10.23;;;14.90;99.90;;;;;;5096829;28;20458;-41
2023/06/17 03:17:24;;;;;;;10.53;9.60;;;14.90;99.90;;;;;;5096345;28;20454;-44
2023/06/17 03:19:50;;;;;;;11.10;10.10;;;14.80;99.90;;;;;;5095944;28;20438;-43
2023/06/17 03:22:15;;;;;;;11.00;9.53;;;14.70;99.90;;;;;;5078216;28;20411;-42
2023/06/17 03:24:41;;;;;;;12.20;10.90;;;14.70;99.90;;;;;;5096369;28;20475;-43
2023/06/17 03:27:07;;;;;;;11.60;10.50;;;14.60;99.90;;;;;;5096464;28;20199;-42
2023/06/17 03:29:35;;;;;;;11.93;10.93;;;14.60;99.90;;;;;;5096277;28;20184;-42
2023/06/17 03:32:01;;;;;;;10.60;9.70;;;14.50;99.90;;;;;;5095629;28;20180;-43
2023/06/17 03:34:26;;;;;;;11.37;10.37;;;14.40;99.90;;;;;;5096244;28;20534;-45
2023/06/17 03:36:52;;;;;;;10.77;9.87;;;14.40;1.00;;;;;;5096901;28;20418;-42
2023/06/17 03:39:18;;;;;;;11.23;10.20;;;14.40;1.00;;;;;;5095869;28;20179;-42
2023/06/17 03:41:43;;;;;;;11.23;10.23;;;14.40;1.00;;;;;;5062682;28;20275;-42
2023/06/17 03:44:10;;;;;;;10.73;9.40;;;14.40;1.00;;;;;;5096295;28;20321;-42
2023/06/17 03:46:35;;;;;;;11.43;10.43;;;14.40;1.00;;;;;;5096399;28;20546;-45
2023/06/17 03:49:02;;;;;;;11.40;10.43;;;14.30;1.00;;;;;;5095977;28;20449;-42
2023/06/17 03:51:28;;;;;;;11.50;10.40;;;14.30;1.00;;;;;;5078354;28;20190;-42
2023/06/17 03:53:53;;;;;;;10.60;9.70;;;14.30;1.00;;;;;;5096529;28;20493;-46
2023/06/17 03:56:19;;;;;;;9.83;8.93;;;14.30;1.00;;;;;;5095404;28;20301;-42
2023/06/17 03:58:44;;;;;;;10.80;9.80;;;14.40;1.00;;;;;;5095878;28;20184;-43
2023/06/17 04:01:12;;;;;;;10.30;9.50;;;14.40;1.00;;;;;;5095264;28;20172;-41
2023/06/17 04:03:40;;;;;;;11.23;10.20;;;14.40;1.00;;;;;;5095791;28;20176;-43
2023/06/17 04:06:06;;;;;;;10.30;9.50;;;14.50;1.00;;;;;;5095338;28;20468;-42
2023/06/17 04:08:32;;;;;;;11.20;10.10;;;14.50;1.00;;;;;;5094645;28;20858;-42
2023/06/17 04:10:59;;;;;;;11.43;10.33;;;14.50;1.00;;;;;;5093740;28;20445;-44
2023/06/17 04:13:24;;;;;;;11.33;10.23;;;14.50;1.00;;;;;;5095454;28;20426;-41
2023/06/17 04:15:50;;;;;;;11.27;10.27;;;14.50;1.00;;;;;;5061942;28;20474;-43
2023/06/17 04:18:16;;;;;;;11.00;10.03;;;14.50;1.00;;;;;;5078113;28;20337;-44
2023/06/17 04:20:42;;;;;;;10.40;9.60;;;14.60;1.00;;;;;;5095456;28;20406;-42
2023/06/17 04:23:07;;;;;;;11.43;10.10;;;14.70;1.00;;;;;;5094951;28;20195;-40
2023/06/17 04:25:36;;;;;;;11.50;10.57;;;14.70;1.00;;;;;;5076958;28;20225;-42
2023/06/17 04:28:06;;;;;;;9.83;8.93;;;14.80;1.00;;;;;;5095162;28;20185;-44
2023/06/17 04:30:33;;;;;;;11.47;10.47;;;14.90;1.00;;;;;;5095508;28;20689;-44
2023/06/17 04:33:00;;;;;;;13.43;10.30;;;14.90;1.00;;;;;;5096044;28;20685;-44
2023/06/17 04:35:26;;;;;;;10.43;9.43;;;15.00;1.00;;;;;;5095319;28;20903;-43
2023/06/17 04:37:55;;;;;;;10.67;9.57;;;15.10;1.00;;;;;;5096115;28;20418;-44
2023/06/17 04:40:25;;;;;;;10.40;9.50;;;15.20;1.00;;;;;;5095277;28;20422;-41
2023/06/17 04:42:51;;;;;;;10.90;9.80;;;15.30;1.00;;;;;;5095103;28;20430;-42
2023/06/17 04:45:19;;;;;;;11.33;10.00;;;15.40;1.00;;;;;;5098361;28;20422;-46
2023/06/17 04:47:45;;;;;;;10.80;9.90;;;15.50;1.00;;;;;;5098513;28;20491;-41
2023/06/17 04:50:12;;;;;;;10.93;10.03;;;15.60;1.00;;;;;;5098335;28;20457;-43
2023/06/17 04:52:42;;;;;;;10.63;9.70;;;15.70;99.90;;;;;;5099083;28;20532;-47
2023/06/17 04:55:11;;;;;;;10.13;9.23;;;15.80;99.90;;;;;;5080538;28;20563;-44
2023/06/17 04:57:37;;;;;;;9.63;8.90;;;15.80;99.90;;;;;;5098603;28;20483;-41
2023/06/17 05:00:05;;;;;;;11.73;10.53;;;15.90;99.90;;;;;;5097216;28;20460;-41
2023/06/17 05:02:30;;;;;;;10.43;9.47;;;16.00;99.90;;;;;;5098572;28;20481;-42
2023/06/17 05:04:56;;;;;;;10.63;9.60;;;16.10;99.90;;;;;;5098008;28;20500;-43
2023/06/17 05:07:22;;;;;;;11.13;10.13;;;16.30;99.90;;;;;;5099017;28;20645;-43
2023/06/17 05:09:48;;;;;;;10.10;9.20;;;16.30;99.90;;;;;;5080775;28;20353;-44
2023/06/17 05:12:13;;;;;;;10.77;9.77;;;16.30;99.90;;;;;;5080516;28;20176;-42
2023/06/17 05:14:39;;;;;;;10.80;9.70;;;16.40;99.90;;;;;;5098503;28;20211;-43
2023/06/17 05:17:05;;;;;;;11.23;10.07;;;16.50;99.90;;;;;;5097924;28;20183;-42
2023/06/17 05:19:31;;;;;;;10.33;9.43;;;16.70;74.80;;;;;;5098196;28;20529;-43
2023/06/17 05:21:56;;;;;;;10.80;9.80;;;16.80;27.90;;;;;;5096793;28;20265;-42
2023/06/17 05:24:22;;;;;;;9.80;8.67;;;16.90;1.00;;;;;;5096209;28;20176;-41
2023/06/17 05:26:48;;;;;;;12.10;10.67;;;16.90;1.00;;;;;;5094194;28;20504;-41
2023/06/17 05:29:13;;;;;;;9.53;8.73;;;17.00;1.00;;;;;;5094143;28;20187;-41
2023/06/17 05:31:39;;;;;;;9.60;8.70;;;17.10;1.00;;;;;;5077173;28;20177;-41
2023/06/17 05:34:04;;;;;;;10.57;9.57;;;17.30;1.00;;;;;;5095275;28;20257;-42
2023/06/17 05:36:30;;;;;;;9.97;9.10;;;17.40;1.00;;;;;;5093480;28;20238;-41
2023/06/17 05:38:55;;;;;;;10.20;9.30;;;17.50;1.00;;;;;;5093421;28;20485;-47
2023/06/17 05:41:21;;;;;;;10.90;9.93;;;17.70;1.00;;;;;;5077264;28;20173;-45
2023/06/17 05:43:48;;;;;;;10.67;9.67;;;17.70;1.00;;;;;;5096361;28;20219;-43
2023/06/17 05:46:13;;;;;;;11.33;9.70;;;17.90;1.00;;;;;;5095388;28;20180;-41
2023/06/17 05:48:39;;;;;;;10.70;9.80;;;17.90;1.00;;;;;;5095801;28;20571;-46
2023/06/17 05:51:05;;;;;;;10.67;9.43;;;18.00;1.00;;;;;;5095262;28;20188;-44
2023/06/17 05:53:31;;;;;;;10.43;9.30;;;18.10;1.00;;;;;;5094853;28;20199;-43
2023/06/17 05:55:56;;;;;;;9.10;8.30;;;18.40;1.00;;;;;;5094267;28;20517;-44
2023/06/17 05:58:22;;;;;;;10.30;9.40;;;18.60;1.00;;;;;;5096671;28;20297;-43
2023/06/17 06:00:47;;;;;;;10.90;9.10;;;18.70;1.00;;;;;;5096081;28;20192;-43
2023/06/17 06:03:13;;;;;;;10.40;9.50;;;18.90;1.00;;;;;;5079543;28;20629;-43
2023/06/17 06:05:39;;;;;;;9.97;9.17;;;19.10;1.00;;;;;;5097617;28;20180;-44
2023/06/17 06:08:04;;;;;;;9.30;8.60;;;19.20;1.00;;;;;;5095682;28;20184;-44
2023/06/17 06:10:30;;;;;;;9.60;8.90;;;19.40;1.00;;;;;;5096312;28;20263;-42
2023/06/17 06:12:56;;;;;;;9.97;9.00;;;19.50;1.00;;;;;;5095520;28;20241;-44
2023/06/17 06:15:23;;;;;;;10.43;9.50;;;19.60;1.00;;;;;;5097117;28;20212;-42
2023/06/17 06:17:51;;;;;;;10.53;9.63;;;19.70;1.00;;;;;;5080283;28;20173;-43
2023/06/17 06:20:17;;;;;;;10.90;9.80;;;19.70;1.00;;;;;;5094229;28;20430;-42
2023/06/17 06:22:43;;;;;;;10.37;9.37;;;19.60;1.00;;;;;;5093424;28;20425;-42
2023/06/17 06:25:09;;;;;;;10.20;9.30;;;19.70;1.00;;;;;;5095856;28;20434;-45
2023/06/17 06:27:34;;;;;;;10.80;9.80;;;19.90;1.00;;;;;;5094660;28;20187;-43
2023/06/17 06:30:00;;;;;;;9.43;8.53;;;20.00;1.00;;;;;;5096828;28;20172;-43
2023/06/17 06:32:26;;;;;;;10.00;9.20;;;20.20;1.00;;;;;;5095296;28;20268;-46
2023/06/17 06:34:52;;;;;;;10.33;9.37;;;20.50;1.00;;;;;;5096540;28;20208;-42
2023/06/17 06:37:17;;;;;;;10.13;9.23;;;20.60;1.00;;;;;;5096503;28;20418;-43
2023/06/17 06:39:43;;;;;;;10.07;9.17;;;20.80;1.00;;;;;;5100471;28;20223;-45
2023/06/17 06:42:10;;;;;;;10.63;9.53;;;20.80;1.00;;;;;;5117137;28;20542;-43
2023/06/17 06:44:36;;;;;;;10.00;9.00;;;20.90;1.00;;;;;;5117150;28;20186;-45
2023/06/17 06:47:02;;;;;;;9.83;8.93;;;20.80;1.00;;;;;;5116014;28;20421;-49
2023/06/17 06:49:27;;;;;;;10.30;9.30;;;21.00;1.00;;;;;;5116993;28;20429;-44
2023/06/17 06:51:53;;;;;;;11.03;10.03;;;21.00;1.00;;;;;;5116385;28;20179;-42
2023/06/17 06:54:19;;;;;;;9.90;9.10;;;21.00;1.00;;;;;;5115292;28;20478;-44
2023/06/17 06:56:45;;;;;;;8.90;8.20;;;21.10;1.00;;;;;;5115378;28;20182;-43
2023/06/17 06:59:10;;;;;;;10.23;9.33;;;21.40;1.00;;;;;;5116389;28;20201;-42
2023/06/17 07:01:36;;;;;;;10.10;9.10;;;21.70;1.00;;;;;;5115448;28;20183;-42
2023/06/17 07:04:01;;;;;;;9.23;8.50;;;22.00;1.00;;;;;;5114039;28;20176;-41
2023/06/17 07:06:27;;;;;;;9.00;8.30;;;22.40;1.00;;;;;;5112136;28;20588;-44
2023/06/17 07:08:53;;;;;;;9.27;8.47;;;22.50;1.00;;;;;;5113135;28;20175;-43
2023/06/17 07:11:18;;;;;;;10.07;9.17;;;22.60;1.00;;;;;;5111529;28;20430;-42
2023/06/17 07:13:44;;;;;;;9.60;8.70;;;22.70;1.00;;;;;;5112560;28;20184;-41
2023/06/17 07:16:10;;;;;;;9.27;8.47;;;22.80;1.00;;;;;;5114307;28;20262;-43
2023/06/17 07:18:35;;;;;;;9.70;8.70;;;22.90;1.00;;;;;;5113582;28;20480;-44
2023/06/17 07:21:01;;;;;;;10.00;9.00;;;23.10;1.00;;;;;;5115112;28;20179;-43
2023/06/17 07:23:27;;;;;;;8.60;7.90;;;23.30;1.00;;;;;;5115067;28;20176;-42
2023/06/17 07:25:52;;;;;;;9.27;8.50;;;23.60;1.00;;;;;;5114971;28;20194;-42
2023/06/17 07:28:18;;;;;;;8.67;7.87;;;23.90;1.00;;;;;;5114354;28;20535;-42
2023/06/17 07:30:44;;;;;;;9.50;8.70;;;23.90;1.00;;;;;;5114798;28;20244;-44
2023/06/17 07:33:09;;;;;;;11.60;9.87;;;23.80;1.00;;;;;;5113730;28;20266;-44
2023/06/17 07:35:35;;;;;;;9.40;8.50;;;23.90;1.00;;;;;;5113836;28;20450;-42
2023/06/17 07:38:01;;;;;;;10.73;8.43;;;23.80;1.00;;;;;;5114209;28;20164;-42
2023/06/17 07:40:26;;;;;;;8.17;7.37;;;23.90;1.00;;;;;;5114364;28;20688;-45
2023/06/17 07:42:52;;;;;;;8.93;8.13;;;24.10;1.00;;;;;;5113259;28;20295;-42
2023/06/17 07:45:18;;;;;;;9.47;8.57;;;24.20;1.00;;;;;;5111610;28;20168;-42
2023/06/17 07:47:43;;;;;;;9.13;7.77;;;24.60;1.00;;;;;;5110425;28;20236;-44
2023/06/17 07:50:09;;;;;;;8.90;8.20;;;24.60;1.00;;;;;;5112340;28;20196;-43
2023/06/17 07:52:35;;;;;;;9.43;8.57;;;24.70;1.00;;;;;;5095383;28;20179;-43
2023/06/17 07:55:02;;;;;;;9.33;8.43;;;24.90;1.00;;;;;;5112751;28;20539;-43
2023/06/17 07:57:28;;;;;;;9.17;8.33;;;25.10;1.00;;;;;;5114252;28;20183;-45
2023/06/17 07:59:54;;;;;;;8.23;7.07;;;25.40;1.00;;;;;;5111861;28;20424;-44
2023/06/17 08:02:19;;;;;;;8.30;7.40;;;25.70;1.00;;;;;;5114511;28;20228;-41
2023/06/17 08:04:45;;;;;;;8.33;7.50;;;26.00;1.00;;;;;;5113292;28;20403;-42
2023/06/17 08:07:11;;;;;;;8.27;7.57;;;26.20;1.00;;;;;;5110620;28;20198;-44
2023/06/17 08:09:37;;;;;;;9.47;8.53;;;25.90;1.00;;;;;;5112941;28;20188;-44
2023/06/17 08:12:03;;;;;;;13.93;8.50;;;26.20;1.00;;;;;;5113050;28;20588;-43
2023/06/17 08:14:28;;;;;;;8.10;7.40;;;26.10;1.00;;;;;;5113263;28;20477;-43
2023/06/17 08:16:55;;;;;;;8.60;7.97;;;26.00;1.00;;;;;;5111964;28;20410;-43
2023/06/17 08:19:21;;;;;;;8.07;7.27;;;25.90;1.00;;;;;;5096154;28;20270;-42
2023/06/17 08:21:46;;;;;;;9.07;8.17;;;26.20;1.00;;;;;;5117982;28;20421;-42
2023/06/17 08:24:16;;;;;;;8.20;7.50;;;26.40;1.00;;;;;;5117623;28;20425;-44
2023/06/17 08:26:43;;;;;;;8.80;8.00;;;26.30;1.00;;;;;;5118281;28;20180;-42
2023/06/17 08:29:10;;;;;;;8.43;7.50;;;26.50;1.00;;;;;;5119175;28;20413;-43
2023/06/17 08:31:36;;;;;;;9.60;7.83;;;26.90;1.00;;;;;;5118632;28;20413;-42
2023/06/17 08:34:02;;;;;;;8.27;7.50;;;27.10;1.00;;;;;;5119653;28;20425;-44
2023/06/17 08:36:27;;;;;;;7.83;7.20;;;27.50;1.00;;;;;;5118807;28;20845;-42
2023/06/17 08:38:53;;;;;;;7.97;7.37;;;27.90;1.00;;;;;;5102092;28;20217;-43
2023/06/17 08:41:18;;;;;;;8.07;7.37;;;28.30;1.00;;;;;;5120648;28;20234;-43
2023/06/17 08:43:46;;;;;;;8.20;7.50;;;28.60;1.00;;;;;;5119509;28;20457;-45
2023/06/17 08:46:13;;;;;;;8.53;7.63;;;29.00;1.00;;;;;;5098849;28;20191;-42
2023/06/17 08:48:41;;;;;;;7.83;7.10;;;28.80;1.00;;;;;;5100532;28;20488;-44
2023/06/17 08:51:07;;;;;;;7.77;7.10;;;28.70;1.00;;;;;;5099705;28;20421;-44
2023/06/17 08:53:33;;;;;;;8.53;7.83;;;28.90;1.00;;;;;;5117316;28;20467;-43
2023/06/17 08:55:58;;;;;;;7.20;6.60;;;29.10;1.00;;;;;;5098696;28;20203;-44
2023/06/17 08:58:24;;;;;;;7.03;6.50;;;29.60;1.00;;;;;;5100070;28;20183;-44
2023/06/17 09:00:50;;;;;;;7.33;6.83;;;29.90;1.00;;;;;;5116849;28;20287;-44
2023/06/17 09:03:16;;;;;;;7.33;6.73;;;30.40;1.00;;;;;;5116928;28;20286;-46
2023/06/17 09:05:42;;;;;;;7.37;6.77;;;30.90;1.00;;;;;;5096002;28;20235;-43
2023/06/17 09:08:08;;;;;;;6.73;6.23;;;30.30;99.90;;;;;;5115389;28;20482;-42
2023/06/17 09:10:43;;;;;;;8.53;6.70;;;30.40;99.90;;;;;;5114337;28;20180;-46
2023/06/17 09:13:09;;;;;;;7.00;6.40;;;30.60;99.90;;;;;;5096363;28;20424;-42
2023/06/17 09:15:40;;;;;;;7.20;6.60;;;30.90;99.90;;;;;;5096677;28;20469;-42
2023/06/17 09:18:07;;;;;;;7.50;6.90;;;30.80;99.90;;;;;;5114226;28;20417;-46
2023/06/17 09:20:33;;;;;;;6.63;6.13;;;30.40;99.90;;;;;;5113387;28;20392;-44
2023/06/17 09:22:59;;;;;;;11.73;7.13;;;30.00;99.90;;;;;;5114272;28;20541;-45
2023/06/17 09:25:25;;;;;;;8.13;7.43;;;29.50;99.90;;;;;;5114602;28;20408;-43
2023/06/17 09:27:52;;;;;;;8.90;8.10;;;28.90;99.90;;;;;;5114362;28;20653;-44
2023/06/17 09:30:20;;;;;;;8.73;7.30;;;28.30;99.90;;;;;;5095747;28;20254;-44
2023/06/17 09:32:49;;;;;;;7.73;7.13;;;28.10;99.90;;;;;;5096904;28;20471;-43
2023/06/17 09:35:15;;;;;;;7.30;6.77;;;28.00;99.90;;;;;;5115248;28;20739;-45
2023/06/17 09:38:01;;;;;;;7.97;7.37;;;27.80;99.90;;;;;;5097073;28;20414;-43
2023/06/17 09:40:28;;;;;;;6.93;6.33;;;27.90;99.90;;;;;;5096489;28;20492;-43
2023/06/17 09:42:58;;;;;;;6.70;6.10;;;27.90;99.90;;;;;;5096365;28;20552;-42
2023/06/17 09:45:25;;;;;;;8.43;7.23;;;27.80;99.90;;;;;;5097446;28;20547;-43
2023/06/17 09:47:54;;;;;;;7.53;6.87;;;27.60;99.90;;;;;;5096677;28;20440;-43
2023/06/17 09:50:22;;;;;;;7.80;7.03;;;27.40;99.90;;;;;;5115631;28;20825;-45
2023/06/17 09:52:52;;;;;;;7.13;6.40;;;27.30;99.90;;;;;;5114924;28;20817;-46
2023/06/17 09:55:20;;;;;;;7.00;6.40;;;27.20;99.90;;;;;;5115283;28;20480;-44
2023/06/17 09:57:47;;;;;;;6.67;6.13;;;27.10;99.90;;;;;;5116191;28;20731;-44
2023/06/17 10:00:14;;;;;;;7.00;6.40;;;27.40;99.90;;;;;;5114902;28;20417;-43
2023/06/17 10:02:40;;;;;;;6.70;6.10;;;28.20;99.90;;;;;;5116455;28;20417;-42
2023/06/17 10:05:10;;;;;;;6.40;5.73;;;29.00;99.90;;;;;;5099510;28;20414;-43
2023/06/17 10:07:37;;;;;;;6.80;6.10;;;29.70;99.90;;;;;;5115302;28;20746;-44
2023/06/17 10:10:04;;;;;;;6.40;5.90;;;30.20;99.90;;;;;;5115462;28;20425;-43
2023/06/17 10:12:31;;;;;;;6.93;6.33;;;30.70;99.90;;;;;;5116443;28;20569;-45
2023/06/17 10:14:58;;;;;;;7.50;6.83;;;31.20;99.90;;;;;;5115398;28;20469;-45
2023/06/17 10:17:25;;;;;;;7.80;7.17;;;31.60;99.90;;;;;;5096384;28;20532;-45
2023/06/17 10:19:51;;;;;;;7.00;6.37;;;31.70;99.90;;;;;;5096474;28;20384;-45
2023/06/17 10:22:19;;;;;;;6.90;6.40;;;31.90;99.90;;;;;;5076998;28;20700;-44
2023/06/17 10:24:47;;;;;;;7.10;6.47;;;31.70;99.90;;;;;;5093744;28;20400;-47
2023/06/17 10:27:13;;;;;;;7.77;7.20;;;31.40;99.90;;;;;;5112732;28;20435;-48
2023/06/17 10:29:44;;;;;;;6.73;6.13;;;31.00;99.90;;;;;;5112035;28;20496;-45
2023/06/17 10:32:22;;;;;;;7.20;6.50;;;30.60;99.90;;;;;;5112138;28;20545;-44
2023/06/17 10:35:06;;;;;;;6.77;6.17;;;30.40;99.90;;;;;;5113290;28;20886;-43
2023/06/17 10:37:45;;;;;;;6.27;5.77;;;30.30;99.90;;;;;;5113298;28;20441;-43
2023/06/17 10:40:26;;;;;;;7.60;7.00;;;30.60;99.90;;;;;;5112396;28;20451;-43
2023/06/17 10:43:02;;;;;;;7.53;6.83;;;30.90;99.90;;;;;;5112273;28;20421;-46
2023/06/17 10:45:57;;;;;;;7.47;6.77;;;31.30;99.90;;;;;;5115711;28;20383;-43
2023/06/17 10:48:25;;;;;;;7.40;6.70;;;31.90;99.90;;;;;;5115455;28;20421;-43
2023/06/17 10:51:02;;;;;;;7.40;6.73;;;32.30;99.90;;;;;;5098584;28;20404;-46
2023/06/17 10:53:32;;;;;;;7.20;6.60;;;32.10;99.90;;;;;;5115300;28;20447;-43
2023/06/17 10:56:02;;;;;;;6.73;6.00;;;32.40;99.90;;;;;;5113460;28;20703;-43
2023/06/17 10:58:42;;;;;;;6.93;6.33;;;32.70;99.90;;;;;;5113551;28;20501;-44
2023/06/17 11:01:09;;;;;;;7.37;6.77;;;33.20;99.90;;;;;;5111778;28;20451;-42
2023/06/17 11:03:36;;;;;;;8.10;7.50;;;33.30;99.90;;;;;;5113419;28;20718;-43
2023/06/17 11:06:05;;;;;;;7.70;7.10;;;32.70;99.90;;;;;;5113536;28;20689;-43
2023/06/17 11:08:33;;;;;;;7.13;6.53;;;32.90;99.90;;;;;;5113581;28;20396;-45
2023/06/17 11:11:17;;;;;;;7.37;6.70;;;32.60;99.90;;;;;;5112821;28;20436;-43
2023/06/17 11:13:44;;;;;;;7.10;6.60;;;32.40;99.90;;;;;;5113268;28;20400;-43
2023/06/17 11:16:10;;;;;;;6.43;5.93;;;32.90;99.90;;;;;;5095155;28;20461;-44
2023/06/17 11:18:41;;;;;;;6.43;5.83;;;32.70;99.90;;;;;;5112263;28;20503;-46
2023/06/17 11:21:07;;;;;;;7.40;6.80;;;32.90;99.90;;;;;;5113085;28;20795;-45
2023/06/17 11:23:34;;;;;;;7.27;6.57;;;33.10;99.90;;;;;;5113520;28;20447;-46
2023/06/17 11:26:00;;;;;;;7.33;6.73;;;33.70;99.90;;;;;;5112380;28;20399;-44
2023/06/17 11:28:26;;;;;;;7.00;6.40;;;34.50;99.90;;;;;;5093259;28;20408;-43
2023/06/17 11:30:54;;;;;;;7.57;7.03;;;35.00;99.90;;;;;;5110239;28;20429;-44
2023/06/17 11:33:20;;;;;;;6.77;6.20;;;35.00;99.90;;;;;;5111209;28;20512;-44
2023/06/17 11:35:50;;;;;;;6.27;5.80;;;35.30;99.90;;;;;;5112151;28;20477;-44
2023/06/17 11:38:19;;;;;;;6.23;5.83;;;35.30;99.90;;;;;;5114474;28;20410;-43
2023/06/17 11:40:45;;;;;;;6.90;6.23;;;35.70;99.90;;;;;;5115179;28;20480;-43
2023/06/17 11:43:10;;;;;;;7.00;6.33;;;36.20;99.90;;;;;;5078775;28;20524;-42
2023/06/17 11:45:37;;;;;;;7.33;6.73;;;36.00;99.90;;;;;;5095312;28;20662;-44
2023/06/17 11:48:06;;;;;;;7.37;6.00;;;35.70;99.90;;;;;;5096022;28;20473;-44
2023/06/17 11:50:33;;;;;;;7.17;6.67;;;35.90;99.90;;;;;;5079492;28;20430;-45
2023/06/17 11:52:58;;;;;;;6.80;6.30;;;35.90;99.90;;;;;;5097472;28;20389;-46
2023/06/17 11:55:34;;;;;;;6.57;5.87;;;35.60;99.90;;;;;;5100570;28;20474;-46
2023/06/17 11:58:02;;;;;;;7.20;6.57;;;35.80;99.90;;;;;;5115886;28;20441;-44
2023/06/17 12:00:28;;;;;;;6.80;6.30;;;35.60;99.90;;;;;;5117013;28;20520;-43
2023/06/17 12:02:57;;;;;;;7.43;6.73;;;34.80;99.90;;;;;;5116134;28;20446;-45
2023/06/17 12:05:29;;;;;;;6.80;6.30;;;35.10;99.90;;;;;;5098587;28;20417;-45
2023/06/17 12:08:00;;;;;;;7.60;7.00;;;34.80;99.90;;;;;;5113950;28;20384;-46
2023/06/17 12:10:26;;;;;;;6.37;5.87;;;34.70;99.90;;;;;;5116648;28;20428;-45
2023/06/17 12:12:56;;;;;;;7.30;6.80;;;34.70;99.90;;;;;;5098296;28;20445;-44
2023/06/17 12:15:27;;;;;;;7.20;6.70;;;34.40;99.90;;;;;;5097606;28;20436;-48
2023/06/17 12:17:53;;;;;;;7.07;6.50;;;34.30;99.90;;;;;;5099469;28;20400;-45
2023/06/17 12:20:22;;;;;;;6.63;6.13;;;34.70;99.90;;;;;;5100911;28;20491;-43
2023/06/17 12:22:52;;;;;;;6.80;6.30;;;35.00;99.90;;;;;;5100569;28;20430;-42
2023/06/17 12:25:18;;;;;;;6.33;5.87;;;35.00;99.90;;;;;;5117044;28;20421;-42
2023/06/17 12:27:46;;;;;;;7.00;6.40;;;34.30;99.90;;;;;;5116174;28;20391;-43
2023/06/17 12:30:13;;;;;;;6.23;5.73;;;34.00;99.90;;;;;;5098172;28;20441;-41
2023/06/17 12:32:47;;;;;;;6.97;6.47;;;33.90;99.90;;;;;;5119322;28;20999;-43
2023/06/17 12:35:17;;;;;;;6.30;5.70;;;34.40;99.90;;;;;;5082615;28;20431;-43
2023/06/17 12:37:43;;;;;;;6.80;6.30;;;34.80;99.90;;;;;;5096949;28;20433;-45
2023/06/17 12:40:11;;;;;;;6.20;5.70;;;35.10;99.90;;;;;;5094713;28;20435;-42
2023/06/17 12:42:37;;;;;;;6.00;5.57;;;35.20;99.90;;;;;;5095795;28;20492;-47
2023/06/17 12:45:03;;;;;;;7.03;6.43;;;35.90;99.90;;;;;;5114763;28;20502;-44
2023/06/17 12:47:30;;;;;;;7.07;6.40;;;36.30;99.90;;;;;;5095617;28;20441;-42